createdAt,value
2019-05-17T00:00:48.638Z,99897.14
2019-05-17T00:03:52.380Z,99891.42
2019-05-17T00:06:56.863Z,99884.63
2019-05-17T00:09:58.277Z,99885.47
2019-05-17T00:13:00.442Z,99886.31
2019-05-17T00:16:02.629Z,99876.23
2019-05-17T00:19:04.554Z,99885.59
2019-05-17T00:22:07.379Z,99882.84
2019-05-17T00:25:10.065Z,99878.41
2019-05-17T00:28:13.308Z,99879.52
2019-05-17T00:31:17.198Z,99876.78
2019-05-17T00:34:19.139Z,99879.55
2019-05-17T00:37:26.317Z,99882.32
2019-05-17T00:40:27.800Z,99876.02
2019-05-17T00:43:29.738Z,99875.22
2019-05-17T00:46:31.646Z,99876.72
2019-05-17T00:49:34.221Z,99879.55
2019-05-17T00:52:36.881Z,99877.63
2019-05-17T00:55:39.149Z,99876.58
2019-05-17T00:58:41.152Z,99878.77
2019-05-17T01:01:43.104Z,99879.60
2019-05-17T01:04:47.883Z,99881.83
2019-05-17T01:07:49.746Z,99876.08
2019-05-17T01:10:51.668Z,99879.91
2019-05-17T01:13:55.897Z,99870.05
2019-05-17T01:16:57.393Z,99867.87
2019-05-17T01:19:59.347Z,99867.88
2019-05-17T01:23:01.267Z,99869.56
2019-05-17T01:26:03.983Z,99870.67
2019-05-17T01:29:06.738Z,99870.38
2019-05-17T01:32:09.257Z,99860.27
2019-05-17T01:35:11.269Z,99862.45
2019-05-17T01:38:13.148Z,99863.02
2019-05-17T01:41:17.186Z,99866.05
2019-05-17T01:44:18.925Z,99860.86
2019-05-17T01:47:20.992Z,99852.64
2019-05-17T01:50:22.999Z,99847.70
2019-05-17T01:53:26.898Z,99844.67
2019-05-17T01:56:28.751Z,99851.79
2019-05-17T01:59:32.054Z,99845.48
2019-05-17T02:02:37.218Z,99844.64
2019-05-17T02:05:39.170Z,99841.08
2019-05-17T02:08:41.132Z,99848.75
2019-05-17T02:11:43.159Z,99842.45
2019-05-17T02:14:46.781Z,99843.83
2019-05-17T02:17:48.984Z,99841.37
2019-05-17T02:20:51.271Z,99844.38
2019-05-17T02:23:53.248Z,99844.12
2019-05-17T02:26:57.019Z,99843.30
2019-05-17T02:30:02.196Z,99839.48
2019-05-17T02:33:04.063Z,99832.63
2019-05-17T02:36:06.453Z,99834.00
2019-05-17T02:39:08.366Z,99841.67
2019-05-17T02:42:13.615Z,99836.48
2019-05-17T02:45:14.975Z,99839.48
2019-05-17T02:48:16.916Z,99836.20
2019-05-17T02:51:19.571Z,99833.46
2019-05-17T02:54:23.520Z,99836.20
2019-05-17T02:57:25.348Z,99829.91
2019-05-17T03:00:27.257Z,99826.90
2019-05-17T03:03:29.205Z,99837.56
2019-05-17T03:06:32.948Z,99840.86
2019-05-17T03:09:35.179Z,99841.13
2019-05-17T03:12:37.119Z,99833.72
2019-05-17T03:15:39.065Z,99841.69
2019-05-17T03:18:43.893Z,99842.78
2019-05-17T03:21:45.957Z,99843.34
2019-05-17T03:24:49.104Z,99844.69
2019-05-17T03:27:53.601Z,99841.66
2019-05-17T03:30:56.679Z,99846.59
2019-05-17T03:33:59.561Z,99839.77
2019-05-17T03:37:06.444Z,99833.73
2019-05-17T03:40:23.724Z,99827.99
2019-05-17T03:43:09.438Z,99830.44
2019-05-17T03:46:13.908Z,99824.41
2019-05-17T03:49:15.273Z,99826.55
2019-05-17T03:52:17.182Z,99822.69
2019-05-17T03:55:19.202Z,99824.04
2019-05-17T03:58:23.486Z,99832.19
2019-05-17T04:01:25.038Z,99821.72
2019-05-17T04:04:26.987Z,99827.73
2019-05-17T04:07:29.046Z,99825.01
2019-05-17T04:10:33.422Z,99824.13
2019-05-17T04:13:34.952Z,99816.19
2019-05-17T04:16:36.923Z,99808.16
2019-05-17T04:19:38.853Z,99812.00
2019-05-17T04:22:44.159Z,99812.61
2019-05-17T04:25:44.636Z,99819.13
2019-05-17T04:28:46.529Z,99830.12
2019-05-17T04:31:48.595Z,99839.00
2019-05-17T04:34:52.578Z,99847.71
2019-05-17T04:37:54.423Z,99856.55
2019-05-17T04:40:56.334Z,99858.34
2019-05-17T04:43:58.304Z,99849.92
2019-05-17T04:47:03.069Z,99830.31
2019-05-17T04:50:04.913Z,99821.54
2019-05-17T04:53:06.957Z,99829.69
2019-05-17T04:56:08.989Z,99829.93
2019-05-17T04:59:13.895Z,99807.02
2019-05-17T05:02:14.905Z,99817.91
2019-05-17T05:05:17.043Z,99819.23
2019-05-17T05:08:22.233Z,99828.05
2019-05-17T05:11:23.457Z,99826.67
2019-05-17T05:14:25.645Z,99816.87
2019-05-17T05:17:27.683Z,99813.71
2019-05-17T05:20:32.420Z,99817.69
2019-05-17T05:23:33.434Z,99818.49
2019-05-17T05:26:35.471Z,99822.70
2019-05-17T05:29:37.312Z,99825.02
2019-05-17T05:32:39.302Z,99829.80
2019-05-17T05:35:42.474Z,99822.98
2019-05-17T05:38:44.813Z,99829.02
2019-05-17T05:41:46.745Z,99822.38
2019-05-17T05:44:48.682Z,99821.50
2019-05-17T05:47:52.161Z,99811.85
2019-05-17T05:50:54.467Z,99816.34
2019-05-17T05:53:56.425Z,99825.31
2019-05-17T05:56:58.468Z,99822.56
2019-05-17T06:00:02.223Z,99824.09
2019-05-17T06:03:05.350Z,99827.66
2019-05-17T06:06:07.285Z,99821.88
2019-05-17T06:09:11.811Z,99834.95
2019-05-17T06:12:22.917Z,99840.83
2019-05-17T06:15:17.190Z,99840.69
2019-05-17T06:18:22.483Z,99837.99
2019-05-17T06:21:24.274Z,99841.63
2019-05-17T06:24:26.253Z,99838.03
2019-05-17T06:27:28.233Z,99844.34
2019-05-17T06:30:32.407Z,99845.66
2019-05-17T06:33:34.976Z,99835.62
2019-05-17T06:36:38.426Z,99830.64
2019-05-17T06:39:41.922Z,99832.98
2019-05-17T06:42:45.548Z,99826.61
2019-05-17T06:45:47.936Z,99825.98
2019-05-17T06:48:49.971Z,99825.69
2019-05-17T06:51:51.936Z,99821.02
2019-05-17T06:54:53.946Z,99820.93
2019-05-17T06:57:55.921Z,99822.57
2019-05-17T07:00:59.871Z,99829.66
2019-05-17T07:04:01.727Z,99825.44
2019-05-17T07:07:22.410Z,99830.04
2019-05-17T07:10:24.296Z,99833.81
2019-05-17T07:13:26.279Z,99833.34
2019-05-17T07:16:30.071Z,99828.08
2019-05-17T07:19:32.170Z,99829.35
2019-05-17T07:22:36.965Z,99827.53
2019-05-17T07:25:39.673Z,99822.28
2019-05-17T07:28:42.002Z,99823.75
2019-05-17T07:31:44.044Z,99824.33
2019-05-17T07:34:46.035Z,99817.17
2019-05-17T07:37:50.125Z,99822.82
2019-05-17T07:40:51.887Z,99818.06
2019-05-17T07:43:53.847Z,99816.42
2019-05-17T07:46:55.848Z,99816.78
2019-05-17T07:50:00.696Z,99819.52
2019-05-17T07:53:01.663Z,99825.33
2019-05-17T07:56:04.760Z,99820.78
2019-05-17T07:59:06.726Z,99817.03
2019-05-17T08:02:10.611Z,99812.12
2019-05-17T08:05:12.710Z,99806.27
2019-05-17T08:08:14.647Z,99804.66
2019-05-17T08:11:16.587Z,99809.55
2019-05-17T08:14:29.346Z,99808.41
2019-05-17T08:17:22.553Z,99799.65
2019-05-17T08:20:24.513Z,99803.59
2019-05-17T08:23:26.528Z,99802.77
2019-05-17T08:26:29.623Z,99808.63
2019-05-17T08:29:31.927Z,99800.39
2019-05-17T08:32:33.857Z,99802.95
2019-05-17T08:35:35.930Z,99796.76
2019-05-17T08:38:39.344Z,99800.12
2019-05-17T08:41:41.442Z,99793.65
2019-05-17T08:44:43.386Z,99797.66
2019-05-17T08:47:45.378Z,99791.98
2019-05-17T08:50:49.497Z,99797.95
2019-05-17T08:53:51.389Z,99793.58
2019-05-17T08:56:53.299Z,99792.98
2019-05-17T08:59:55.318Z,99804.92
2019-05-17T09:02:57.219Z,99807.04
2019-05-17T09:06:02.126Z,99802.22
2019-05-17T09:09:05.669Z,99801.66
2019-05-17T09:12:11.030Z,99801.95
2019-05-17T09:15:13.430Z,99794.86
2019-05-17T09:18:15.367Z,99797.55
2019-05-17T09:21:17.599Z,99791.22
2019-05-17T09:24:20.647Z,99793.03
2019-05-17T09:27:22.632Z,99792.02
2019-05-17T09:30:25.697Z,99784.02
2019-05-17T09:33:29.989Z,99780.59
2019-05-17T09:36:32.176Z,99783.55
2019-05-17T09:39:34.156Z,99779.87
2019-05-17T09:42:36.059Z,99776.84
2019-05-17T09:45:40.464Z,99776.45
2019-05-17T09:48:42.393Z,99774.05
2019-05-17T09:51:44.399Z,99776.28
2019-05-17T09:54:46.322Z,99776.72
2019-05-17T09:57:49.651Z,99761.28
2019-05-17T10:00:51.869Z,99770.63
2019-05-17T10:03:53.980Z,99771.67
2019-05-17T10:06:56.035Z,99775.06
2019-05-17T10:09:59.709Z,99768.66
2019-05-17T10:13:01.834Z,99770.05
2019-05-17T10:16:03.920Z,99764.66
2019-05-17T10:19:05.834Z,99757.84
2019-05-17T10:22:10.192Z,99758.11
2019-05-17T10:25:11.731Z,99760.98
2019-05-17T10:28:13.694Z,99767.14
2019-05-17T10:31:15.613Z,99761.34
2019-05-17T10:34:20.195Z,99770.72
2019-05-17T10:37:21.481Z,99762.87
2019-05-17T10:40:23.588Z,99761.41
2019-05-17T10:43:25.507Z,99760.66
2019-05-17T10:46:29.824Z,99751.95
2019-05-17T10:49:31.348Z,99755.20
2019-05-17T10:52:33.406Z,99753.77
2019-05-17T10:55:35.355Z,99751.43
2019-05-17T10:58:39.748Z,99751.80
2019-05-17T11:01:41.164Z,99755.39
2019-05-17T11:04:43.170Z,99749.50
2019-05-17T11:07:45.145Z,99749.20
2019-05-17T11:10:47.098Z,99751.48
2019-05-17T11:13:49.094Z,99748.68
2019-05-17T11:16:51.051Z,99755.44
2019-05-17T11:19:52.967Z,99753.47
2019-05-17T11:22:54.919Z,99755.47
2019-05-17T11:25:56.882Z,99755.27
2019-05-17T11:28:58.889Z,99755.88
2019-05-17T11:32:00.962Z,99755.22
2019-05-17T11:35:04.821Z,99752.14
2019-05-17T11:38:06.991Z,99757.61
2019-05-17T11:41:20.339Z,99755.58
2019-05-17T11:44:13.331Z,99751.60
2019-05-17T11:47:15.324Z,99758.33
2019-05-17T11:50:17.717Z,99758.68
2019-05-17T11:53:19.811Z,99756.69
2019-05-17T11:56:21.750Z,99753.20
2019-05-17T11:59:23.714Z,99758.41
2019-05-17T12:02:25.633Z,99761.05
2019-05-17T12:05:27.647Z,99761.20
2019-05-17T12:08:29.585Z,99754.83
2019-05-17T12:11:31.507Z,99754.83
2019-05-17T12:14:33.453Z,99752.66
2019-05-17T12:17:35.385Z,99765.03
2019-05-17T12:20:37.360Z,99752.95
2019-05-17T12:23:39.314Z,99748.49
2019-05-17T12:26:41.281Z,99738.00
2019-05-17T12:29:43.247Z,99741.80
2019-05-17T12:32:45.210Z,99743.17
2019-05-17T12:35:47.223Z,99741.78
2019-05-17T12:38:49.253Z,99736.95
2019-05-17T12:41:51.243Z,99735.78
2019-05-17T12:44:53.254Z,99734.55
2019-05-17T12:47:55.242Z,99729.88
2019-05-17T12:50:57.144Z,99729.16
2019-05-17T12:53:59.253Z,99731.88
2019-05-17T12:57:04.357Z,99724.09
2019-05-17T13:00:07.439Z,99728.47
2019-05-17T13:03:09.804Z,99722.98
2019-05-17T13:06:12.980Z,99712.52
2019-05-17T13:09:14.904Z,99719.73
2019-05-17T13:12:16.946Z,99716.59
2019-05-17T13:15:20.235Z,99715.67
2019-05-17T13:18:23.305Z,99718.87
2019-05-17T13:21:25.294Z,99712.08
2019-05-17T13:24:30.349Z,99712.05
2019-05-17T13:27:32.325Z,99710.06
2019-05-17T13:30:34.348Z,99703.71
2019-05-17T13:33:36.374Z,99702.19
2019-05-17T13:36:40.011Z,99710.37
2019-05-17T13:39:42.157Z,99700.53
2019-05-17T13:42:44.194Z,99697.39
2019-05-17T13:45:47.809Z,99700.22
2019-05-17T13:48:50.168Z,99704.41
2019-05-17T13:51:52.131Z,99698.66
2019-05-17T13:54:54.144Z,99691.17
2019-05-17T13:57:56.107Z,99693.50
2019-05-17T14:00:58.087Z,99691.89
2019-05-17T14:04:00.068Z,99687.45
2019-05-17T14:07:02.485Z,99690.26
2019-05-17T14:10:05.422Z,99687.23
2019-05-17T14:13:07.427Z,99675.38
2019-05-17T14:16:09.395Z,99682.38
2019-05-17T14:19:11.363Z,99685.60
2019-05-17T14:22:13.415Z,99680.73
2019-05-17T14:25:15.870Z,99678.86
2019-05-17T14:28:19.278Z,99685.36
2019-05-17T14:31:21.252Z,99682.59
2019-05-17T14:34:23.270Z,99683.28
2019-05-17T14:37:26.600Z,99680.03
2019-05-17T14:41:00.384Z,99682.13
2019-05-17T14:43:32.852Z,99677.59
2019-05-17T14:46:34.911Z,99681.87
2019-05-17T14:49:36.874Z,99685.39
2019-05-17T14:52:38.925Z,99675.97
2019-05-17T14:55:40.920Z,99673.88
2019-05-17T14:58:42.931Z,99670.73
2019-05-17T15:01:44.938Z,99669.23
2019-05-17T15:04:46.893Z,99672.14
2019-05-17T15:07:48.826Z,99672.59
2019-05-17T15:10:52.066Z,99669.59
2019-05-17T15:13:54.165Z,99666.33
2019-05-17T15:16:56.938Z,99663.79
2019-05-17T15:19:58.933Z,99661.47
2019-05-17T15:23:00.884Z,99659.83
2019-05-17T15:26:03.308Z,99654.13
2019-05-17T15:29:05.325Z,99647.16
2019-05-17T15:32:07.314Z,99648.67
2019-05-17T15:35:09.285Z,99645.43
2019-05-17T15:38:12.162Z,99641.24
2019-05-17T15:41:14.143Z,99640.28
2019-05-17T15:44:16.122Z,99642.28
2019-05-17T15:47:18.208Z,99642.63
2019-05-17T15:50:20.357Z,99636.36
2019-05-17T15:53:23.492Z,99630.55
2019-05-17T15:56:26.071Z,99628.00
2019-05-17T15:59:29.834Z,99631.27
2019-05-17T16:02:32.280Z,99628.27
2019-05-17T16:05:34.289Z,99631.16
2019-05-17T16:08:36.304Z,99625.70
2019-05-17T16:11:38.269Z,99631.03
2019-05-17T16:14:40.146Z,99626.83
2019-05-17T16:17:42.126Z,99630.80
2019-05-17T16:20:44.141Z,99634.30
2019-05-17T16:23:46.191Z,99630.80
2019-05-17T16:26:48.157Z,99631.39
2019-05-17T16:29:50.079Z,99623.27
2019-05-17T16:32:52.167Z,99628.48
2019-05-17T16:35:54.103Z,99621.73
2019-05-17T16:38:56.086Z,99616.40
2019-05-17T16:41:58.136Z,99622.69
2019-05-17T16:45:02.069Z,99619.19
2019-05-17T16:48:04.206Z,99617.10
2019-05-17T16:51:06.166Z,99620.58
2019-05-17T16:54:08.077Z,99621.87
2019-05-17T16:57:12.635Z,99621.27
2019-05-17T17:00:27.195Z,99620.55
2019-05-17T17:03:43.289Z,99624.05
2019-05-17T17:06:34.759Z,99625.79
2019-05-17T17:09:36.737Z,99626.89
2019-05-17T17:12:38.758Z,99621.66
2019-05-17T17:15:40.716Z,99621.66
2019-05-17T17:18:42.623Z,99626.20
2019-05-17T17:21:44.634Z,99624.34
2019-05-17T17:24:46.630Z,99624.47
2019-05-17T17:27:48.673Z,99622.39
2019-05-17T17:30:50.637Z,99617.77
2019-05-17T17:33:52.631Z,99630.55
2019-05-17T17:36:55.836Z,99630.55
2019-05-17T17:39:57.826Z,99630.80
2019-05-17T17:43:00.055Z,99631.05
2019-05-17T17:46:02.045Z,99626.61
2019-05-17T17:49:05.112Z,99636.84
2019-05-17T17:52:07.288Z,99625.39
2019-05-17T17:55:09.370Z,99629.91
2019-05-17T17:58:11.641Z,99626.66
2019-05-17T18:01:13.629Z,99619.45
2019-05-17T18:04:15.765Z,99621.31
2019-05-17T18:07:17.725Z,99624.80
2019-05-17T18:10:27.554Z,99622.02
2019-05-17T18:13:30.199Z,99625.13
2019-05-17T18:16:32.156Z,99625.83
2019-05-17T18:19:34.152Z,99626.66
2019-05-17T18:22:36.107Z,99622.69
2019-05-17T18:25:38.511Z,99629.42
2019-05-17T18:28:40.499Z,99631.86
2019-05-17T18:31:42.484Z,99635.45
2019-05-17T18:34:44.403Z,99630.70
2019-05-17T18:37:46.521Z,99631.30
2019-05-17T18:40:48.551Z,99634.42
2019-05-17T18:43:54.385Z,99641.75
2019-05-17T18:46:56.429Z,99646.38
2019-05-17T18:49:58.415Z,99643.70
2019-05-17T18:53:00.937Z,99646.62
2019-05-17T18:56:03.002Z,99650.33
2019-05-17T18:59:05.374Z,99658.21
2019-05-17T19:02:07.369Z,99661.22
2019-05-17T19:05:11.862Z,99667.70
2019-05-17T19:08:14.034Z,99667.48
2019-05-17T19:11:16.473Z,99672.83
2019-05-17T19:14:18.438Z,99672.13
2019-05-17T19:17:20.438Z,99680.00
2019-05-17T19:20:23.799Z,99684.73
2019-05-17T19:23:26.145Z,99688.34
2019-05-17T19:26:28.172Z,99675.62
2019-05-17T19:29:30.218Z,99672.94
2019-05-17T19:32:32.254Z,99672.61
2019-05-17T19:35:34.273Z,99673.63
2019-05-17T19:38:36.252Z,99673.79
2019-05-17T19:41:39.524Z,99671.14
2019-05-17T19:44:41.572Z,99677.60
2019-05-17T19:47:43.654Z,99675.28
2019-05-17T19:50:45.599Z,99667.91
2019-05-17T19:53:47.671Z,99663.56
2019-05-17T19:56:51.472Z,99665.63
2019-05-17T19:59:53.440Z,99660.27
2019-05-17T20:02:56.987Z,99656.73
2019-05-17T20:06:01.266Z,99652.26
2019-05-17T20:09:04.981Z,99647.82
2019-05-17T20:12:06.972Z,99650.42
2019-05-17T20:15:17.302Z,99652.66
2019-05-17T20:18:15.657Z,99646.86
2019-05-17T20:21:17.662Z,99651.24
2019-05-17T20:24:19.659Z,99654.96
2019-05-17T20:27:21.667Z,99651.27
2019-05-17T20:30:25.414Z,99663.98
2019-05-17T20:33:28.287Z,99667.34
2019-05-17T20:36:30.777Z,99667.95
2019-05-17T20:39:32.747Z,99660.95
2019-05-17T20:42:35.089Z,99664.83
2019-05-17T20:45:37.201Z,99673.23
2019-05-17T20:48:39.229Z,99667.75
2019-05-17T20:51:41.281Z,99672.84
2019-05-17T20:54:43.256Z,99675.55
2019-05-17T20:57:45.223Z,99671.90
2019-05-17T21:00:48.997Z,99674.16
2019-05-17T21:03:50.929Z,99673.78
2019-05-17T21:06:52.873Z,99678.68
2019-05-17T21:09:55.569Z,99673.95
2019-05-17T21:12:57.439Z,99668.72
2019-05-17T21:15:59.438Z,99676.93
2019-05-17T21:19:02.185Z,99675.95
2019-05-17T21:22:04.178Z,99685.23
2019-05-17T21:25:06.675Z,99690.16
2019-05-17T21:28:08.577Z,99689.68
2019-05-17T21:31:10.509Z,99680.45
2019-05-17T21:34:12.472Z,99674.58
2019-05-17T21:37:14.965Z,99678.34
2019-05-17T21:40:17.111Z,99680.19
2019-05-17T21:43:19.043Z,99682.63
2019-05-17T21:46:21.093Z,99682.00
2019-05-17T21:49:22.973Z,99678.09
2019-05-17T21:52:24.950Z,99674.34
2019-05-17T21:55:26.915Z,99676.25
2019-05-17T21:58:28.885Z,99667.42
2019-05-17T22:01:32.761Z,99672.80
2019-05-17T22:04:34.721Z,99679.44
2019-05-17T22:07:36.791Z,99667.59
2019-05-17T22:10:38.704Z,99667.41
2019-05-17T22:13:40.635Z,99667.08
2019-05-17T22:16:42.631Z,99668.52
2019-05-17T22:19:44.558Z,99664.29
2019-05-17T22:22:46.698Z,99662.64
2019-05-17T22:25:48.657Z,99657.92
2019-05-17T22:28:50.675Z,99656.64
2019-05-17T22:31:52.579Z,99658.73
2019-05-17T22:34:54.558Z,99652.48
2019-05-17T22:37:56.519Z,99652.70
2019-05-17T22:40:58.509Z,99654.30
2019-05-17T22:44:00.471Z,99653.45
2019-05-17T22:47:02.593Z,99647.98
2019-05-17T22:50:05.012Z,99639.42
2019-05-17T22:53:06.983Z,99634.25
2019-05-17T22:56:08.902Z,99639.02
2019-05-17T22:59:10.928Z,99636.92
2019-05-17T23:02:12.915Z,99639.26
2019-05-17T23:05:14.863Z,99635.98
2019-05-17T23:08:16.889Z,99631.28
2019-05-17T23:11:18.835Z,99638.82
2019-05-17T23:14:20.837Z,99646.48
2019-05-17T23:17:22.741Z,99641.69
2019-05-17T23:20:24.668Z,99642.66
2019-05-17T23:23:26.718Z,99641.80
2019-05-17T23:26:28.649Z,99637.83
2019-05-17T23:29:30.573Z,99643.12
2019-05-17T23:32:32.504Z,99643.56
2019-05-17T23:35:34.463Z,99650.45
2019-05-17T23:38:36.381Z,99642.08
2019-05-17T23:41:38.349Z,99648.72
2019-05-17T23:44:40.301Z,99637.15
2019-05-17T23:47:42.269Z,99641.56
2019-05-17T23:50:44.237Z,99638.45
2019-05-17T23:53:46.214Z,99643.72
2019-05-17T23:56:48.183Z,99639.26
2019-05-17T23:59:50.088Z,99638.56
